Terminal Aerodrome Forecast
Issued by NWS Charleston, WV

Current Version | Previous Version | Graphics & Text | Print | Product List | Glossary On
Versions: 1 2 3 4 5 6 7 8 9 10 11 12 13 14 15 16 17 18 19 20 21 22 23 24 25 26
000
FTUS41 KRLX 250520
TAFHTS
TAF
KHTS 250520Z 2506/2606 17004KT P6SM SCT250
     FM251700 20008KT P6SM BKN060
     FM252100 23007KT P6SM VCTS BKN050CB
     FM260100 20004KT P6SM BKN050=

USA.gov is the U.S. government's official web portal to all federal, state and local government web resources and services.